Marmarth, ND (58643)

8:12 AM MST on December 19, 2014 (GMT -0700)
RAWS SAND CREEK ND US | Change Station
CLOSE
Current Station
Personal Weather Station
Location: Amidon, ND
Elevation: 2748 ft
Nearby Weather Stations

Elev 2748 ft 46.55 °N, 103.52 °W | Updated 42 minutes ago

Partly Cloudy
Partly Cloudy
28 °F
Feels Like 19 °F
N
9
Wind Variable Wind from WSW
Gusts 12.0 mph

Today
High -- | Low -- °F
--% Chance of Precip.
Yesterday
High -- | Low -- °F
Precip. -- in
7:34 AM 4:10 PM
Waning Crescent, 7% visible
Pressure 30.03 in
Visibility 10.0 miles
Clouds Scattered Clouds 11000 ft
Windchill 19 °F
Dew Point 21 °F
Humidity 76%
Rainfall 0.00 in
Snow Depth Not available.
UV 0 out of 12
Pollen .10 out of 12
Air Quality Not available.
Flu Activity Not available.
METAR KBHK 191451Z AUTO 00000KT 10SM SCT110 M04/M06 A2994 RMK AO2 SLP168 T10391061 53005

More Conditions Fewer Conditions

Pressure 30.03 in
Visibility 10.0 miles
Clouds Scattered Clouds 11000 ft
Windchill 19 °F
Dew Point 21 °F
Humidity 76%
Rainfall 0.00 in
Snow Depth Not available.
UV 0 out of 12
Pollen .10 out of 12
Air Quality Not available.
Flu Activity Not available.
METAR KBHK 191451Z AUTO 00000KT 10SM SCT110 M04/M06 A2994 RMK AO2 SLP168 T10391061 53005

More Conditions Fewer Conditions

10-Day Weather Forecast

Almanac

Astronomy

Dec. 19, 2014 Rise Set
Actual Time
Civil Twilight
Nautical Twilight
Astronomical Twilight
Moon
Length of Visible Light
Length of Day
Tomorrow will be .
, % of the Moon is Illuminated

Today's Extremes

State Highs State Lows

Community

WunderPhotos

Upload Photos

1,778,996 photos uploaded!

WunderBlogs® & News

Nearby

Air Quality

  Air Quality AQ Index Pollutant
Not available.

Snow Depth

Station Depth Elevation

Earthquake Activity

City Distance Mag. Time & Date
Minimum magnitude displayed is 2.5.

Coastal Water Temperatures

Place Temperature

Nearby Weather Stations